createdAt,value
2023-01-19T00:00:30.967Z,61.39
2023-01-19T00:02:57.353Z,60.99
2023-01-19T00:05:23.797Z,60.39
2023-01-19T00:07:50.432Z,60.00
2023-01-19T00:10:16.857Z,59.65
2023-01-19T00:12:43.301Z,59.80
2023-01-19T00:15:09.668Z,59.72
2023-01-19T00:17:36.055Z,60.17
2023-01-19T00:20:02.390Z,60.24
2023-01-19T00:22:28.764Z,59.74
2023-01-19T00:24:55.098Z,60.42
2023-01-19T00:27:21.807Z,60.61
2023-01-19T00:29:48.193Z,60.71
2023-01-19T00:32:14.769Z,60.85
2023-01-19T00:34:41.196Z,60.84
2023-01-19T00:37:07.549Z,60.63
2023-01-19T00:39:33.929Z,60.38
2023-01-19T00:42:00.255Z,59.46
2023-01-19T00:44:26.610Z,60.37
2023-01-19T00:46:53.649Z,59.45
2023-01-19T00:49:20.197Z,60.20
2023-01-19T00:51:46.549Z,61.09
2023-01-19T00:54:12.902Z,61.26
2023-01-19T00:56:39.279Z,60.34
2023-01-19T00:59:05.989Z,60.49
2023-01-19T01:01:45.417Z,61.37
2023-01-19T01:04:14.643Z,60.98
2023-01-19T01:06:41.204Z,60.61
2023-01-19T01:09:09.906Z,60.71
2023-01-19T01:11:38.641Z,61.40
2023-01-19T01:14:05.080Z,61.57
2023-01-19T01:16:35.082Z,60.88
2023-01-19T01:19:01.496Z,60.15
2023-01-19T01:21:27.918Z,60.25
2023-01-19T01:23:54.537Z,59.95
2023-01-19T01:26:20.901Z,60.30
2023-01-19T01:28:47.267Z,59.94
2023-01-19T01:31:13.737Z,60.34
2023-01-19T01:33:41.802Z,60.54
2023-01-19T01:36:08.549Z,60.04
2023-01-19T01:38:34.965Z,59.81
2023-01-19T01:41:01.537Z,59.61
2023-01-19T01:43:27.935Z,60.02
2023-01-19T01:45:54.427Z,60.08
2023-01-19T01:48:20.882Z,60.63
2023-01-19T01:50:47.232Z,59.78
2023-01-19T01:53:13.597Z,60.22
2023-01-19T01:55:39.973Z,60.28
2023-01-19T01:58:06.355Z,60.05
2023-01-19T02:00:32.775Z,60.30
2023-01-19T02:03:00.648Z,59.31
2023-01-19T02:05:27.486Z,61.14
2023-01-19T02:07:53.932Z,60.49
2023-01-19T02:10:20.310Z,60.64
2023-01-19T02:12:46.647Z,60.53
2023-01-19T02:15:12.976Z,59.51
2023-01-19T02:17:39.457Z,60.33
2023-01-19T02:20:05.892Z,58.79
2023-01-19T02:22:32.323Z,59.72
2023-01-19T02:24:58.709Z,59.19
2023-01-19T02:27:25.052Z,59.07
2023-01-19T02:29:51.501Z,60.35
2023-01-19T02:32:17.917Z,61.23
2023-01-19T02:34:44.328Z,62.13
2023-01-19T02:37:10.735Z,62.72
2023-01-19T02:39:37.173Z,62.62
2023-01-19T02:42:04.703Z,62.09
2023-01-19T02:44:31.078Z,62.12
2023-01-19T02:46:57.435Z,61.87
2023-01-19T02:49:23.761Z,61.38
2023-01-19T02:51:50.180Z,62.11
2023-01-19T02:54:16.502Z,62.41
2023-01-19T02:56:42.844Z,62.04
2023-01-19T02:59:09.553Z,62.91
2023-01-19T03:01:37.703Z,62.57
2023-01-19T03:04:04.217Z,62.67
2023-01-19T03:06:30.586Z,62.58
2023-01-19T03:08:57.019Z,63.03
2023-01-19T03:11:23.440Z,62.04
2023-01-19T03:13:49.810Z,62.82
2023-01-19T03:16:16.253Z,63.31
2023-01-19T03:18:42.696Z,63.62
2023-01-19T03:21:09.030Z,63.56
2023-01-19T03:23:35.514Z,64.62
2023-01-19T03:26:15.088Z,64.81
2023-01-19T03:28:41.475Z,64.79
2023-01-19T03:31:11.923Z,64.25
2023-01-19T03:33:38.309Z,64.80
2023-01-19T03:36:04.740Z,64.49
2023-01-19T03:38:31.128Z,64.57
2023-01-19T03:40:57.536Z,65.26
2023-01-19T03:43:24.580Z,65.33
2023-01-19T03:45:51.390Z,65.36
2023-01-19T03:48:17.732Z,66.36
2023-01-19T03:50:44.056Z,66.49
2023-01-19T03:53:10.472Z,66.83
2023-01-19T03:55:40.383Z,67.52
2023-01-19T03:58:06.963Z,67.03
2023-01-19T04:00:33.348Z,66.01
2023-01-19T04:03:00.014Z,65.64
2023-01-19T04:05:26.738Z,65.48
2023-01-19T04:07:53.133Z,65.97
2023-01-19T04:10:19.657Z,65.69
2023-01-19T04:12:45.995Z,66.19
2023-01-19T04:15:12.438Z,66.59
2023-01-19T04:17:38.757Z,66.76
2023-01-19T04:20:05.084Z,67.39
2023-01-19T04:22:31.415Z,67.46
2023-01-19T04:24:57.824Z,67.71
2023-01-19T04:27:24.196Z,67.33
2023-01-19T04:29:50.587Z,67.36
2023-01-19T04:32:16.989Z,67.57
2023-01-19T04:34:43.360Z,67.57
2023-01-19T04:37:09.778Z,67.45
2023-01-19T04:39:36.135Z,67.44
2023-01-19T04:42:02.514Z,67.68
2023-01-19T04:44:28.896Z,67.66
2023-01-19T04:46:55.297Z,68.07
2023-01-19T04:49:21.725Z,68.69
2023-01-19T04:51:48.055Z,68.75
2023-01-19T04:54:14.426Z,68.49
2023-01-19T04:56:40.783Z,69.66
2023-01-19T04:59:07.276Z,69.59
2023-01-19T05:01:33.776Z,69.70
2023-01-19T05:04:00.255Z,69.55
2023-01-19T05:06:26.665Z,69.31
2023-01-19T05:08:55.456Z,69.42
2023-01-19T05:11:21.878Z,69.43
2023-01-19T05:13:51.535Z,68.58
2023-01-19T05:16:18.201Z,68.76
2023-01-19T05:18:44.711Z,68.89
2023-01-19T05:21:11.526Z,68.60
2023-01-19T05:23:37.953Z,68.00
2023-01-19T05:26:04.333Z,67.30
2023-01-19T05:28:33.486Z,67.82
2023-01-19T05:31:00.038Z,67.41
2023-01-19T05:33:26.471Z,67.72
2023-01-19T05:35:52.904Z,67.06
2023-01-19T05:38:29.382Z,66.41
2023-01-19T05:41:00.673Z,66.08
2023-01-19T05:43:27.103Z,66.17
2023-01-19T05:45:53.456Z,64.45
2023-01-19T05:48:19.783Z,64.73
2023-01-19T05:50:46.260Z,64.65
2023-01-19T05:53:15.275Z,64.58
2023-01-19T05:55:41.595Z,63.70
2023-01-19T05:58:08.000Z,63.94
2023-01-19T06:00:34.357Z,64.57
2023-01-19T06:03:18.974Z,64.30
2023-01-19T06:05:45.456Z,64.72
2023-01-19T06:08:11.875Z,63.58
2023-01-19T06:10:38.378Z,62.96
2023-01-19T06:13:04.726Z,62.60
2023-01-19T06:15:31.134Z,62.20
2023-01-19T06:17:57.697Z,62.46
2023-01-19T06:20:24.093Z,62.23
2023-01-19T06:22:50.536Z,61.84
2023-01-19T06:25:16.902Z,60.82
2023-01-19T06:27:43.233Z,61.71
2023-01-19T06:30:09.611Z,62.14
2023-01-19T06:32:35.987Z,63.28
2023-01-19T06:35:02.426Z,63.86
2023-01-19T06:37:28.845Z,63.24
2023-01-19T06:39:56.757Z,63.17
2023-01-19T06:42:24.239Z,62.46
2023-01-19T06:44:50.681Z,61.80
2023-01-19T06:47:17.114Z,61.49
2023-01-19T06:49:43.490Z,62.04
2023-01-19T06:52:10.379Z,62.01
2023-01-19T06:54:39.971Z,60.07
2023-01-19T06:57:10.163Z,59.33
2023-01-19T06:59:36.653Z,60.64
2023-01-19T07:02:26.610Z,59.40
2023-01-19T07:04:55.581Z,60.48
2023-01-19T07:07:24.554Z,61.05
2023-01-19T07:09:53.813Z,61.21
2023-01-19T07:12:20.601Z,61.63
2023-01-19T07:14:47.109Z,62.93
2023-01-19T07:17:13.566Z,63.65
2023-01-19T07:19:40.011Z,62.66
2023-01-19T07:22:06.503Z,61.48
2023-01-19T07:24:32.952Z,59.75
2023-01-19T07:26:59.372Z,59.03
2023-01-19T07:29:25.907Z,58.07
2023-01-19T07:31:59.513Z,57.51
2023-01-19T07:34:25.952Z,58.05
2023-01-19T07:36:52.442Z,57.44
2023-01-19T07:39:20.033Z,57.91
2023-01-19T07:41:46.609Z,57.38
2023-01-19T07:44:13.359Z,58.03
2023-01-19T07:46:39.765Z,57.64
2023-01-19T07:49:06.999Z,57.42
2023-01-19T07:51:33.392Z,58.06
2023-01-19T07:53:59.837Z,57.00
2023-01-19T07:56:26.318Z,57.86
2023-01-19T07:58:52.747Z,57.05
2023-01-19T08:01:19.232Z,58.04
2023-01-19T08:03:45.704Z,56.90
2023-01-19T08:06:12.047Z,58.73
2023-01-19T08:08:40.841Z,57.68
2023-01-19T08:11:07.260Z,58.75
2023-01-19T08:13:33.820Z,58.24
2023-01-19T08:16:00.360Z,60.17
2023-01-19T08:18:26.910Z,61.20
2023-01-19T08:20:54.674Z,62.41
2023-01-19T08:23:25.496Z,61.69
2023-01-19T08:25:52.134Z,62.35
2023-01-19T08:28:21.947Z,60.31
2023-01-19T08:30:48.546Z,58.48
2023-01-19T08:33:18.778Z,57.59
2023-01-19T08:35:46.200Z,58.30
2023-01-19T08:38:12.566Z,59.05
2023-01-19T08:40:38.934Z,58.75
2023-01-19T08:43:05.359Z,59.10
2023-01-19T08:45:31.806Z,57.60
2023-01-19T08:47:58.199Z,56.13
2023-01-19T08:50:24.608Z,55.62
2023-01-19T08:52:51.062Z,56.65
2023-01-19T08:55:17.544Z,58.28
2023-01-19T08:57:46.788Z,55.84
2023-01-19T09:00:13.317Z,55.78
2023-01-19T09:02:39.958Z,56.66
2023-01-19T09:05:06.397Z,56.35
2023-01-19T09:07:35.781Z,56.53
2023-01-19T09:10:02.339Z,56.41
2023-01-19T09:12:28.764Z,55.88
2023-01-19T09:14:55.153Z,57.07
2023-01-19T09:20:01.792Z,58.40
2023-01-19T09:22:28.231Z,58.26
2023-01-19T09:24:54.669Z,59.16
2023-01-19T09:27:21.114Z,59.66
2023-01-19T09:29:51.062Z,60.32
2023-01-19T09:32:17.495Z,59.94
2023-01-19T09:34:43.891Z,60.32
2023-01-19T09:37:12.657Z,60.38
2023-01-19T09:39:39.101Z,60.83
2023-01-19T09:42:05.564Z,60.42
2023-01-19T09:44:32.002Z,61.49
2023-01-19T09:46:58.587Z,61.93
2023-01-19T09:49:24.960Z,61.68
2023-01-19T09:51:51.393Z,61.74
2023-01-19T09:54:17.810Z,60.98
2023-01-19T09:56:44.255Z,57.49
2023-01-19T09:59:10.804Z,57.16
2023-01-19T10:01:37.411Z,56.50
2023-01-19T10:04:05.813Z,57.05
2023-01-19T10:06:32.454Z,57.08
2023-01-19T10:08:58.963Z,57.27
2023-01-19T10:11:29.131Z,58.49
2023-01-19T10:13:58.695Z,58.62
2023-01-19T10:16:25.124Z,58.54
2023-01-19T10:18:52.217Z,57.91
2023-01-19T10:21:18.673Z,57.39
2023-01-19T10:23:47.099Z,55.92
2023-01-19T10:26:13.592Z,55.60
2023-01-19T10:28:40.008Z,54.88
2023-01-19T10:31:06.696Z,54.94
2023-01-19T10:33:33.304Z,54.95
2023-01-19T10:38:39.947Z,54.77
2023-01-19T10:41:06.362Z,55.94
2023-01-19T10:43:32.977Z,57.74
2023-01-19T10:45:59.531Z,56.44
2023-01-19T10:48:29.369Z,57.51
2023-01-19T10:50:58.071Z,56.97
2023-01-19T10:53:25.813Z,57.35
2023-01-19T10:55:53.465Z,57.38
2023-01-19T10:58:21.004Z,54.85
2023-01-19T11:00:47.483Z,54.90
2023-01-19T11:03:13.978Z,55.47
2023-01-19T11:05:49.319Z,55.17
2023-01-19T11:08:16.710Z,55.89
2023-01-19T11:10:43.108Z,55.86
2023-01-19T11:13:09.770Z,55.51
2023-01-19T11:15:36.153Z,55.67
2023-01-19T11:18:02.643Z,55.78
2023-01-19T11:20:29.062Z,56.59
2023-01-19T11:22:55.486Z,56.59
2023-01-19T11:25:21.835Z,57.13
2023-01-19T11:27:48.209Z,58.56
2023-01-19T11:30:14.709Z,58.16
2023-01-19T11:32:41.154Z,59.31
2023-01-19T11:35:07.685Z,59.85
2023-01-19T11:37:35.118Z,59.72
2023-01-19T11:40:01.565Z,60.05
2023-01-19T11:42:27.933Z,60.52
2023-01-19T11:45:12.725Z,60.75
2023-01-19T11:47:39.205Z,59.82
2023-01-19T11:50:07.922Z,59.51
2023-01-19T11:55:14.880Z,59.41
2023-01-19T11:57:42.100Z,58.08
2023-01-19T12:00:08.586Z,56.16
2023-01-19T12:02:35.085Z,57.33
2023-01-19T12:05:01.601Z,57.41
2023-01-19T12:07:27.979Z,58.08
2023-01-19T12:09:54.516Z,57.95
2023-01-19T12:12:21.549Z,56.36
2023-01-19T12:14:48.004Z,56.03
2023-01-19T12:17:14.808Z,57.15
2023-01-19T12:19:41.442Z,56.96
2023-01-19T12:22:07.921Z,56.49
2023-01-19T12:24:34.425Z,55.70
2023-01-19T12:27:00.904Z,56.36
2023-01-19T12:29:27.305Z,56.37
2023-01-19T12:31:53.860Z,56.34
2023-01-19T12:34:20.465Z,55.80
2023-01-19T12:36:46.932Z,56.54
2023-01-19T12:39:13.408Z,56.35
2023-01-19T12:41:39.960Z,57.59
2023-01-19T12:44:06.479Z,57.15
2023-01-19T12:46:33.065Z,58.76
2023-01-19T12:48:59.552Z,57.80
2023-01-19T12:51:37.356Z,57.17
2023-01-19T12:54:03.997Z,56.68
2023-01-19T12:56:30.587Z,56.92
2023-01-19T12:58:57.834Z,56.72
2023-01-19T13:01:24.316Z,55.90
2023-01-19T13:03:50.782Z,57.95
2023-01-19T13:06:19.837Z,57.25
2023-01-19T13:08:46.234Z,57.94
2023-01-19T13:11:12.671Z,58.26
2023-01-19T13:13:39.132Z,57.39
2023-01-19T13:16:05.623Z,57.94
2023-01-19T13:18:34.808Z,58.16
2023-01-19T13:21:01.341Z,57.91
2023-01-19T13:23:30.464Z,58.55
2023-01-19T13:25:56.889Z,59.00
2023-01-19T13:28:23.322Z,58.80
2023-01-19T13:30:49.848Z,58.40
2023-01-19T13:33:16.355Z,56.56
2023-01-19T13:35:45.484Z,58.24
2023-01-19T13:38:11.988Z,58.30
2023-01-19T13:40:38.449Z,54.92
2023-01-19T13:43:04.836Z,54.84
2023-01-19T13:45:31.243Z,54.79
2023-01-19T13:47:57.799Z,55.32
2023-01-19T13:50:24.214Z,54.95
2023-01-19T13:52:50.697Z,54.72
2023-01-19T13:55:17.109Z,54.73
2023-01-19T13:57:46.326Z,54.88
2023-01-19T14:00:13.167Z,55.29
2023-01-19T14:02:40.983Z,54.87
2023-01-19T14:05:07.554Z,54.87
2023-01-19T14:07:36.326Z,55.42
2023-01-19T14:10:03.037Z,54.74
2023-01-19T14:12:29.536Z,54.85
2023-01-19T14:14:56.019Z,55.17
2023-01-19T14:17:22.446Z,53.84
2023-01-19T14:19:48.948Z,53.84
2023-01-19T14:22:15.417Z,55.30
2023-01-19T14:24:41.827Z,54.82
2023-01-19T14:27:08.316Z,54.37
2023-01-19T14:29:34.728Z,54.74
2023-01-19T14:32:01.148Z,54.84
2023-01-19T14:34:27.516Z,56.02
2023-01-19T14:36:53.963Z,56.33
2023-01-19T14:39:20.429Z,57.34
2023-01-19T14:41:46.939Z,57.21
2023-01-19T14:44:13.589Z,56.10
2023-01-19T14:46:41.328Z,56.67
2023-01-19T14:49:07.769Z,56.42
2023-01-19T14:51:34.136Z,56.61
2023-01-19T14:54:00.567Z,56.05
2023-01-19T14:56:26.990Z,56.03
2023-01-19T14:58:53.349Z,56.50
2023-01-19T15:01:19.852Z,58.17
2023-01-19T15:03:46.319Z,59.97
2023-01-19T15:06:12.720Z,60.99
2023-01-19T15:08:39.194Z,60.25
2023-01-19T15:11:05.983Z,59.76
2023-01-19T15:13:37.513Z,59.85
2023-01-19T15:16:04.257Z,60.13
2023-01-19T15:18:30.748Z,59.86
2023-01-19T15:20:57.506Z,60.11
2023-01-19T15:23:23.919Z,61.02
2023-01-19T15:25:50.404Z,61.01
2023-01-19T15:28:16.846Z,60.43
2023-01-19T15:30:43.693Z,60.82
2023-01-19T15:33:10.172Z,60.44
2023-01-19T15:35:36.601Z,60.32
2023-01-19T15:38:07.808Z,60.71
2023-01-19T15:40:34.311Z,60.49
2023-01-19T15:43:00.728Z,60.48
2023-01-19T15:45:27.253Z,60.62
2023-01-19T15:47:53.769Z,60.36
2023-01-19T15:50:20.198Z,60.98
2023-01-19T15:52:46.698Z,61.46
2023-01-19T15:55:13.078Z,61.42
2023-01-19T15:57:39.592Z,61.40
2023-01-19T16:00:06.031Z,61.46
2023-01-19T16:02:32.492Z,61.58
2023-01-19T16:04:58.953Z,61.83
2023-01-19T16:07:25.513Z,62.61
2023-01-19T16:09:51.847Z,63.51
2023-01-19T16:12:18.327Z,63.96
2023-01-19T16:14:44.804Z,64.18
2023-01-19T16:17:11.299Z,64.92
2023-01-19T16:19:37.785Z,64.68
2023-01-19T16:22:04.225Z,64.89
2023-01-19T16:24:30.622Z,64.25
2023-01-19T16:26:56.975Z,64.14
2023-01-19T16:29:23.384Z,63.90
2023-01-19T16:31:49.869Z,63.89
2023-01-19T16:34:16.364Z,63.79
2023-01-19T16:36:42.815Z,63.94
2023-01-19T16:39:14.575Z,64.34
2023-01-19T16:41:43.981Z,65.09
2023-01-19T16:44:10.496Z,64.13
2023-01-19T16:46:39.300Z,63.82
2023-01-19T16:49:05.743Z,63.82
2023-01-19T16:51:32.199Z,64.07
2023-01-19T16:53:59.752Z,64.14
2023-01-19T16:56:28.949Z,63.69
2023-01-19T16:58:55.514Z,64.34
2023-01-19T17:01:28.048Z,63.58
2023-01-19T17:04:03.857Z,63.63
2023-01-19T17:06:30.323Z,63.63
2023-01-19T17:08:56.743Z,63.05
2023-01-19T17:11:23.250Z,63.33
2023-01-19T17:13:49.692Z,63.19
2023-01-19T17:16:16.114Z,63.04
2023-01-19T17:18:42.656Z,63.76
2023-01-19T17:21:09.126Z,64.26
2023-01-19T17:23:35.499Z,64.87
2023-01-19T17:26:01.939Z,64.43
2023-01-19T17:28:29.349Z,64.77
2023-01-19T17:30:55.904Z,64.11
2023-01-19T17:33:24.580Z,64.48
2023-01-19T17:35:51.011Z,64.40
2023-01-19T17:38:17.461Z,64.41
2023-01-19T17:40:44.180Z,64.30
2023-01-19T17:43:13.273Z,63.95
2023-01-19T17:45:42.726Z,62.63
2023-01-19T17:48:10.812Z,61.40
2023-01-19T17:50:37.217Z,61.19
2023-01-19T17:53:03.655Z,60.37
2023-01-19T17:55:34.988Z,60.42
2023-01-19T17:58:01.474Z,60.51
2023-01-19T18:03:08.252Z,58.50
2023-01-19T18:05:34.653Z,58.24
2023-01-19T18:08:01.267Z,59.36
2023-01-19T18:10:27.633Z,58.06
2023-01-19T18:12:54.382Z,59.44
2023-01-19T18:15:21.175Z,60.07
2023-01-19T18:17:49.332Z,60.44
2023-01-19T18:20:16.172Z,60.36
2023-01-19T18:22:42.559Z,60.68
2023-01-19T18:27:49.289Z,59.61
2023-01-19T18:30:15.859Z,59.64
2023-01-19T18:32:42.525Z,59.51
2023-01-19T18:35:08.937Z,59.47
2023-01-19T18:37:35.282Z,59.01
2023-01-19T18:40:08.861Z,58.35
2023-01-19T18:42:35.567Z,58.77
2023-01-19T18:45:01.966Z,59.22
2023-01-19T18:50:08.758Z,61.19
2023-01-19T18:52:35.216Z,61.91
2023-01-19T18:55:01.605Z,61.90
2023-01-19T18:57:27.963Z,61.67
2023-01-19T18:59:54.324Z,61.24
2023-01-19T19:02:20.747Z,61.13
2023-01-19T19:04:47.225Z,61.00
2023-01-19T19:07:13.557Z,60.96
2023-01-19T19:09:40.023Z,61.31
2023-01-19T19:12:06.568Z,60.38
2023-01-19T19:14:33.004Z,60.77
2023-01-19T19:16:59.338Z,61.24
2023-01-19T19:19:25.672Z,59.37
2023-01-19T19:21:52.042Z,59.37
2023-01-19T19:24:18.398Z,59.24
2023-01-19T19:26:48.893Z,59.33
2023-01-19T19:29:15.281Z,58.66
2023-01-19T19:31:42.057Z,58.07
2023-01-19T19:34:08.452Z,58.46
2023-01-19T19:36:34.913Z,57.55
2023-01-19T19:39:01.265Z,56.64
2023-01-19T19:41:27.670Z,57.23
2023-01-19T19:43:54.158Z,58.40
2023-01-19T19:46:20.540Z,57.96
2023-01-19T19:48:46.959Z,57.87
2023-01-19T19:51:18.411Z,57.95
2023-01-19T19:53:45.439Z,59.25
2023-01-19T19:56:11.841Z,58.82
2023-01-19T19:58:38.216Z,59.15
2023-01-19T20:01:04.916Z,59.23
2023-01-19T20:03:31.387Z,58.94
2023-01-19T20:06:00.504Z,59.49
2023-01-19T20:08:27.010Z,58.95
2023-01-19T20:10:54.585Z,58.86
2023-01-19T20:13:21.005Z,58.25
2023-01-19T20:15:47.544Z,58.32
2023-01-19T20:18:13.932Z,57.32
2023-01-19T20:20:40.286Z,57.10
2023-01-19T20:23:06.633Z,57.37
2023-01-19T20:25:33.084Z,57.20
2023-01-19T20:27:59.539Z,57.01
2023-01-19T20:30:25.914Z,57.60
2023-01-19T20:32:52.279Z,57.80
2023-01-19T20:35:18.626Z,58.31
2023-01-19T20:37:45.226Z,60.09
2023-01-19T20:40:11.555Z,60.12
2023-01-19T20:42:38.067Z,59.92
2023-01-19T20:45:04.477Z,59.26
2023-01-19T20:47:33.949Z,58.24
2023-01-19T20:50:03.069Z,58.51
2023-01-19T20:52:29.643Z,58.65
2023-01-19T20:54:56.011Z,59.15
2023-01-19T20:57:22.407Z,59.08
2023-01-19T20:59:48.789Z,59.01
2023-01-19T21:02:15.812Z,58.47
2023-01-19T21:04:42.261Z,59.09
2023-01-19T21:07:08.652Z,58.98
2023-01-19T21:09:35.092Z,58.31
2023-01-19T21:12:01.659Z,57.98
2023-01-19T21:14:28.050Z,58.09
2023-01-19T21:16:54.393Z,58.41
2023-01-19T21:19:20.749Z,58.76
2023-01-19T21:21:47.209Z,58.70
2023-01-19T21:24:13.542Z,58.59
2023-01-19T21:26:39.880Z,58.88
2023-01-19T21:29:06.993Z,59.08
2023-01-19T21:31:33.510Z,58.53
2023-01-19T21:33:59.999Z,58.83
2023-01-19T21:36:26.360Z,58.08
2023-01-19T21:38:52.784Z,58.20
2023-01-19T21:41:19.141Z,59.26
2023-01-19T21:43:45.601Z,59.09
2023-01-19T21:46:12.063Z,58.26
2023-01-19T21:48:38.496Z,58.37
2023-01-19T21:51:04.875Z,57.71
2023-01-19T21:53:31.202Z,58.25
2023-01-19T21:55:57.732Z,58.01
2023-01-19T21:58:24.116Z,58.76
2023-01-19T22:00:53.014Z,58.75
2023-01-19T22:03:19.609Z,58.91
2023-01-19T22:05:46.100Z,59.18
2023-01-19T22:08:12.650Z,59.83
2023-01-19T22:10:49.356Z,59.45
2023-01-19T22:13:16.035Z,58.39
2023-01-19T22:15:43.528Z,58.97
2023-01-19T22:18:10.027Z,58.72
2023-01-19T22:20:36.398Z,59.62
2023-01-19T22:23:06.170Z,59.78
2023-01-19T22:25:32.615Z,58.79
2023-01-19T22:27:59.043Z,58.05
2023-01-19T22:30:27.995Z,57.02
2023-01-19T22:32:56.420Z,57.39
2023-01-19T22:35:22.875Z,57.07
2023-01-19T22:37:50.353Z,57.71
2023-01-19T22:40:18.180Z,57.58
2023-01-19T22:42:44.540Z,58.05
2023-01-19T22:45:11.398Z,58.04
2023-01-19T22:47:38.091Z,58.80
2023-01-19T22:50:04.488Z,57.92
2023-01-19T22:52:31.926Z,57.13
2023-01-19T22:54:58.686Z,57.74
2023-01-19T22:57:25.038Z,57.12
2023-01-19T22:59:51.826Z,57.77
2023-01-19T23:02:20.680Z,57.91
2023-01-19T23:04:49.407Z,58.28
2023-01-19T23:07:15.981Z,58.11
2023-01-19T23:09:42.383Z,57.76
2023-01-19T23:12:09.246Z,58.23
2023-01-19T23:14:38.136Z,58.17
2023-01-19T23:17:04.608Z,57.89
2023-01-19T23:19:30.944Z,58.35
2023-01-19T23:21:57.435Z,58.92
2023-01-19T23:24:23.830Z,59.02
2023-01-19T23:26:52.124Z,57.98
2023-01-19T23:29:18.600Z,58.28
2023-01-19T23:31:45.048Z,57.73
2023-01-19T23:34:11.471Z,58.57
2023-01-19T23:36:37.945Z,58.87
2023-01-19T23:39:04.379Z,58.48
2023-01-19T23:41:30.718Z,58.76
2023-01-19T23:43:57.268Z,59.60
2023-01-19T23:46:23.690Z,59.25
2023-01-19T23:48:50.351Z,58.37
2023-01-19T23:51:16.740Z,57.68
2023-01-19T23:56:33.533Z,58.59
2023-01-19T23:58:59.954Z,58.79
